CheckWX is a tool to help pilots better visualize weather data.  It is not intended as a substitute for an official pre-flight weather briefing.

07:24:58 UTC

KLRJ METAR
Le Mars Municipal Airport
Le Mars, Iowa, USA
Current

10 mins ago

KLRJ 050715Z AUTO 17006G12KT 10SM CLR 01/M03 A3008 RMK AO2
Observed
Apr-5 @ 07:15 UTC
Wind
  • 170° at 6 KTS
  • Gusting to 12 KTS
Visibility
Flight Rules
VFR
Cloud Levels
  • Clear skies
Temperature
C / 34°F
Dewpoint
-3°C / 27°F
Humidity
75%
Altimeter
30.08" Hg
Pressure
1018.62 hPa
Previous

30 mins ago

KLRJ 050655Z AUTO 15013KT 10SM CLR 02/M04 A3007 RMK AO2
Observed
Apr-5 @ 06:55 UTC
Wind
  • 150° at 13 KTS
Visibility
Flight Rules
VFR
Cloud Levels
  • Clear skies
Temperature
C / 36°F
Dewpoint
-4°C / 25°F
Humidity
65%
Altimeter
30.07" Hg
Pressure
1018.32 hPa
Previous

50 mins ago

KLRJ 050635Z AUTO 15011G16KT 10SM CLR 01/M03 A3007 RMK AO2
Observed
Apr-5 @ 06:35 UTC
Wind
  • 150° at 11 KTS
  • Gusting to 16 KTS
Visibility
Flight Rules
VFR
Cloud Levels
  • Clear skies
Temperature
C / 34°F
Dewpoint
-3°C / 27°F
Humidity
75%
Altimeter
30.07" Hg
Pressure
1018.32 hPa